sensor_id;sensor_type;location;lat;lon;timestamp;P1;durP1;ratioP1;P2;durP2;ratioP2
76320;SDS011;65132;52.088;5.402;2023-06-22T00:01:15;5.95;;;2.42;;
76320;SDS011;65132;52.088;5.402;2023-06-22T00:03:41;5.53;;;2.63;;
76320;SDS011;65132;52.088;5.402;2023-06-22T00:06:17;4.72;;;2.83;;
76320;SDS011;65132;52.088;5.402;2023-06-22T00:08:53;4.80;;;2.72;;
76320;SDS011;65132;52.088;5.402;2023-06-22T00:11:22;8.18;;;2.83;;
76320;SDS011;65132;52.088;5.402;2023-06-22T00:13:48;4.47;;;2.15;;
76320;SDS011;65132;52.088;5.402;2023-06-22T00:16:14;5.70;;;2.22;;
76320;SDS011;65132;52.088;5.402;2023-06-22T00:18:41;7.40;;;2.42;;
76320;SDS011;65132;52.088;5.402;2023-06-22T00:21:16;5.55;;;2.75;;
76320;SDS011;65132;52.088;5.402;2023-06-22T00:26:15;6.03;;;3.08;;
76320;SDS011;65132;52.088;5.402;2023-06-22T00:28:41;6.82;;;3.05;;
76320;SDS011;65132;52.088;5.402;2023-06-22T00:31:14;8.02;;;3.35;;
76320;SDS011;65132;52.088;5.402;2023-06-22T00:34:00;5.20;;;3.03;;
76320;SDS011;65132;52.088;5.402;2023-06-22T00:36:26;6.13;;;2.63;;
76320;SDS011;65132;52.088;5.402;2023-06-22T00:38:52;4.90;;;2.92;;
76320;SDS011;65132;52.088;5.402;2023-06-22T00:41:21;5.35;;;2.88;;
76320;SDS011;65132;52.088;5.402;2023-06-22T00:43:50;6.43;;;2.85;;
76320;SDS011;65132;52.088;5.402;2023-06-22T00:46:26;7.28;;;3.15;;
76320;SDS011;65132;52.088;5.402;2023-06-22T00:48:55;6.35;;;2.90;;
76320;SDS011;65132;52.088;5.402;2023-06-22T00:51:22;5.60;;;2.92;;
76320;SDS011;65132;52.088;5.402;2023-06-22T00:53:51;5.13;;;2.97;;
76320;SDS011;65132;52.088;5.402;2023-06-22T00:58:45;9.32;;;3.05;;
76320;SDS011;65132;52.088;5.402;2023-06-22T01:01:19;6.40;;;2.95;;
76320;SDS011;65132;52.088;5.402;2023-06-22T01:03:49;5.85;;;2.80;;
76320;SDS011;65132;52.088;5.402;2023-06-22T01:06:17;3.97;;;2.50;;
76320;SDS011;65132;52.088;5.402;2023-06-22T01:08:51;6.20;;;2.40;;
76320;SDS011;65132;52.088;5.402;2023-06-22T01:11:21;6.07;;;3.00;;
76320;SDS011;65132;52.088;5.402;2023-06-22T01:14:12;6.75;;;3.45;;
76320;SDS011;65132;52.088;5.402;2023-06-22T01:16:40;7.78;;;3.80;;
76320;SDS011;65132;52.088;5.402;2023-06-22T01:22:00;5.50;;;2.70;;
76320;SDS011;65132;52.088;5.402;2023-06-22T01:24:41;6.30;;;2.63;;
76320;SDS011;65132;52.088;5.402;2023-06-22T01:27:20;5.53;;;2.72;;
76320;SDS011;65132;52.088;5.402;2023-06-22T01:29:56;5.63;;;3.10;;
76320;SDS011;65132;52.088;5.402;2023-06-22T01:32:23;4.72;;;2.78;;
76320;SDS011;65132;52.088;5.402;2023-06-22T01:34:52;5.82;;;2.72;;
76320;SDS011;65132;52.088;5.402;2023-06-22T01:37:20;5.03;;;2.92;;
76320;SDS011;65132;52.088;5.402;2023-06-22T01:39:50;4.93;;;2.55;;
76320;SDS011;65132;52.088;5.402;2023-06-22T01:42:19;5.72;;;3.03;;
76320;SDS011;65132;52.088;5.402;2023-06-22T01:44:47;6.30;;;3.15;;
76320;SDS011;65132;52.088;5.402;2023-06-22T01:47:18;7.18;;;3.53;;
76320;SDS011;65132;52.088;5.402;2023-06-22T01:49:51;8.63;;;3.83;;
76320;SDS011;65132;52.088;5.402;2023-06-22T01:52:18;5.60;;;3.00;;
76320;SDS011;65132;52.088;5.402;2023-06-22T01:54:46;6.20;;;3.10;;
76320;SDS011;65132;52.088;5.402;2023-06-22T01:57:16;4.57;;;2.95;;
76320;SDS011;65132;52.088;5.402;2023-06-22T01:59:48;5.43;;;2.72;;
76320;SDS011;65132;52.088;5.402;2023-06-22T02:02:33;6.25;;;3.20;;
76320;SDS011;65132;52.088;5.402;2023-06-22T02:05:05;4.78;;;2.60;;
76320;SDS011;65132;52.088;5.402;2023-06-22T02:07:34;5.47;;;2.80;;
76320;SDS011;65132;52.088;5.402;2023-06-22T02:10:05;6.85;;;2.63;;
76320;SDS011;65132;52.088;5.402;2023-06-22T02:12:34;5.18;;;2.63;;
76320;SDS011;65132;52.088;5.402;2023-06-22T02:15:03;5.45;;;2.80;;
76320;SDS011;65132;52.088;5.402;2023-06-22T02:17:30;6.40;;;2.92;;
76320;SDS011;65132;52.088;5.402;2023-06-22T02:19:57;5.93;;;3.20;;
76320;SDS011;65132;52.088;5.402;2023-06-22T02:22:26;5.43;;;2.78;;
76320;SDS011;65132;52.088;5.402;2023-06-22T02:24:56;6.95;;;3.53;;
76320;SDS011;65132;52.088;5.402;2023-06-22T02:27:26;6.68;;;3.65;;
76320;SDS011;65132;52.088;5.402;2023-06-22T02:29:54;8.52;;;4.35;;
76320;SDS011;65132;52.088;5.402;2023-06-22T02:32:42;7.22;;;4.18;;
76320;SDS011;65132;52.088;5.402;2023-06-22T02:35:08;5.72;;;3.42;;
76320;SDS011;65132;52.088;5.402;2023-06-22T02:37:36;6.97;;;3.65;;
76320;SDS011;65132;52.088;5.402;2023-06-22T02:40:06;7.65;;;3.72;;
76320;SDS011;65132;52.088;5.402;2023-06-22T02:42:37;6.20;;;3.80;;
76320;SDS011;65132;52.088;5.402;2023-06-22T02:45:08;7.93;;;4.28;;
76320;SDS011;65132;52.088;5.402;2023-06-22T02:50:08;7.10;;;3.60;;
76320;SDS011;65132;52.088;5.402;2023-06-22T02:52:36;7.97;;;4.03;;
76320;SDS011;65132;52.088;5.402;2023-06-22T02:55:16;7.03;;;3.83;;
76320;SDS011;65132;52.088;5.402;2023-06-22T02:57:45;7.32;;;3.55;;
76320;SDS011;65132;52.088;5.402;2023-06-22T03:00:14;8.32;;;3.97;;
76320;SDS011;65132;52.088;5.402;2023-06-22T03:02:46;6.05;;;3.22;;
76320;SDS011;65132;52.088;5.402;2023-06-22T03:05:17;6.78;;;2.90;;
76320;SDS011;65132;52.088;5.402;2023-06-22T03:07:45;6.88;;;3.15;;
76320;SDS011;65132;52.088;5.402;2023-06-22T03:10:15;7.15;;;3.50;;
76320;SDS011;65132;52.088;5.402;2023-06-22T03:12:45;6.68;;;3.28;;
76320;SDS011;65132;52.088;5.402;2023-06-22T03:15:14;6.57;;;3.53;;
76320;SDS011;65132;52.088;5.402;2023-06-22T03:17:46;10.13;;;3.88;;
76320;SDS011;65132;52.088;5.402;2023-06-22T03:20:28;7.22;;;3.75;;
76320;SDS011;65132;52.088;5.402;2023-06-22T03:23:09;7.88;;;4.40;;
76320;SDS011;65132;52.088;5.402;2023-06-22T03:25:40;6.93;;;3.75;;
76320;SDS011;65132;52.088;5.402;2023-06-22T03:28:09;7.18;;;3.80;;
76320;SDS011;65132;52.088;5.402;2023-06-22T03:30:38;7.32;;;4.10;;
76320;SDS011;65132;52.088;5.402;2023-06-22T03:33:05;5.78;;;3.28;;
76320;SDS011;65132;52.088;5.402;2023-06-22T03:35:42;5.15;;;2.95;;
76320;SDS011;65132;52.088;5.402;2023-06-22T03:38:08;10.93;;;3.63;;
76320;SDS011;65132;52.088;5.402;2023-06-22T03:40:36;4.90;;;2.50;;
76320;SDS011;65132;52.088;5.402;2023-06-22T03:43:05;5.43;;;2.70;;
76320;SDS011;65132;52.088;5.402;2023-06-22T03:45:31;5.65;;;2.50;;
76320;SDS011;65132;52.088;5.402;2023-06-22T03:48:00;5.32;;;2.72;;
76320;SDS011;65132;52.088;5.402;2023-06-22T03:50:29;5.60;;;2.58;;
76320;SDS011;65132;52.088;5.402;2023-06-22T03:52:56;5.13;;;2.78;;
76320;SDS011;65132;52.088;5.402;2023-06-22T03:55:22;4.90;;;2.53;;
76320;SDS011;65132;52.088;5.402;2023-06-22T03:57:51;5.93;;;2.63;;
76320;SDS011;65132;52.088;5.402;2023-06-22T04:00:20;4.93;;;2.65;;
76320;SDS011;65132;52.088;5.402;2023-06-22T04:02:49;5.28;;;2.85;;
76320;SDS011;65132;52.088;5.402;2023-06-22T04:05:17;4.88;;;2.80;;
76320;SDS011;65132;52.088;5.402;2023-06-22T04:07:52;5.35;;;3.08;;
76320;SDS011;65132;52.088;5.402;2023-06-22T04:10:21;6.25;;;3.30;;
76320;SDS011;65132;52.088;5.402;2023-06-22T04:12:48;4.85;;;2.88;;
76320;SDS011;65132;52.088;5.402;2023-06-22T04:15:14;6.30;;;3.00;;
76320;SDS011;65132;52.088;5.402;2023-06-22T04:17:50;5.45;;;2.55;;
76320;SDS011;65132;52.088;5.402;2023-06-22T04:20:18;6.35;;;3.00;;
76320;SDS011;65132;52.088;5.402;2023-06-22T04:22:44;6.85;;;2.90;;
76320;SDS011;65132;52.088;5.402;2023-06-22T04:25:11;6.40;;;3.55;;
76320;SDS011;65132;52.088;5.402;2023-06-22T04:27:44;7.30;;;3.65;;
76320;SDS011;65132;52.088;5.402;2023-06-22T04:30:10;7.30;;;3.80;;
76320;SDS011;65132;52.088;5.402;2023-06-22T04:32:37;7.32;;;3.58;;
76320;SDS011;65132;52.088;5.402;2023-06-22T04:35:03;7.97;;;4.00;;
76320;SDS011;65132;52.088;5.402;2023-06-22T04:37:49;9.43;;;4.55;;
76320;SDS011;65132;52.088;5.402;2023-06-22T04:40:18;9.70;;;5.30;;
76320;SDS011;65132;52.088;5.402;2023-06-22T04:42:46;10.15;;;4.85;;
76320;SDS011;65132;52.088;5.402;2023-06-22T04:45:13;8.43;;;4.50;;
76320;SDS011;65132;52.088;5.402;2023-06-22T04:47:39;10.98;;;4.57;;
76320;SDS011;65132;52.088;5.402;2023-06-22T04:50:06;11.82;;;5.95;;
76320;SDS011;65132;52.088;5.402;2023-06-22T04:52:32;8.82;;;5.25;;
76320;SDS011;65132;52.088;5.402;2023-06-22T04:54:59;10.18;;;5.93;;
76320;SDS011;65132;52.088;5.402;2023-06-22T04:57:28;10.52;;;5.20;;
76320;SDS011;65132;52.088;5.402;2023-06-22T04:59:55;9.85;;;5.32;;
76320;SDS011;65132;52.088;5.402;2023-06-22T05:02:21;9.93;;;5.10;;
76320;SDS011;65132;52.088;5.402;2023-06-22T05:04:50;9.60;;;5.47;;
76320;SDS011;65132;52.088;5.402;2023-06-22T05:07:28;11.38;;;5.97;;
76320;SDS011;65132;52.088;5.402;2023-06-22T05:09:54;9.65;;;5.55;;
76320;SDS011;65132;52.088;5.402;2023-06-22T05:12:23;10.68;;;5.90;;
76320;SDS011;65132;52.088;5.402;2023-06-22T05:14:53;10.45;;;5.95;;
76320;SDS011;65132;52.088;5.402;2023-06-22T05:17:24;10.65;;;6.13;;
76320;SDS011;65132;52.088;5.402;2023-06-22T05:24:46;11.55;;;6.47;;
76320;SDS011;65132;52.088;5.402;2023-06-22T05:27:13;16.20;;;8.88;;
76320;SDS011;65132;52.088;5.402;2023-06-22T05:29:48;17.45;;;10.15;;
76320;SDS011;65132;52.088;5.402;2023-06-22T05:32:14;20.52;;;11.10;;
76320;SDS011;65132;52.088;5.402;2023-06-22T05:34:40;19.48;;;11.63;;
76320;SDS011;65132;52.088;5.402;2023-06-22T05:37:07;21.83;;;11.38;;
76320;SDS011;65132;52.088;5.402;2023-06-22T05:39:33;20.08;;;12.30;;
76320;SDS011;65132;52.088;5.402;2023-06-22T05:42:00;19.65;;;11.88;;
76320;SDS011;65132;52.088;5.402;2023-06-22T05:44:26;23.88;;;12.73;;
76320;SDS011;65132;52.088;5.402;2023-06-22T05:46:58;23.27;;;13.82;;
76320;SDS011;65132;52.088;5.402;2023-06-22T05:49:24;25.60;;;14.30;;
76320;SDS011;65132;52.088;5.402;2023-06-22T05:51:51;28.67;;;15.27;;
76320;SDS011;65132;52.088;5.402;2023-06-22T05:54:20;24.23;;;14.20;;
76320;SDS011;65132;52.088;5.402;2023-06-22T05:56:48;22.13;;;12.95;;
76320;SDS011;65132;52.088;5.402;2023-06-22T05:59:14;27.65;;;16.40;;
76320;SDS011;65132;52.088;5.402;2023-06-22T06:01:41;26.33;;;14.68;;
76320;SDS011;65132;52.088;5.402;2023-06-22T06:04:07;24.50;;;14.63;;
76320;SDS011;65132;52.088;5.402;2023-06-22T06:06:35;26.40;;;15.00;;
76320;SDS011;65132;52.088;5.402;2023-06-22T06:09:01;27.02;;;16.27;;
76320;SDS011;65132;52.088;5.402;2023-06-22T06:11:28;25.92;;;14.90;;
76320;SDS011;65132;52.088;5.402;2023-06-22T06:13:54;27.08;;;16.38;;
76320;SDS011;65132;52.088;5.402;2023-06-22T06:16:21;27.67;;;15.70;;
76320;SDS011;65132;52.088;5.402;2023-06-22T06:18:47;26.42;;;15.98;;
76320;SDS011;65132;52.088;5.402;2023-06-22T06:21:14;27.90;;;16.55;;
76320;SDS011;65132;52.088;5.402;2023-06-22T06:23:44;27.85;;;17.17;;
76320;SDS011;65132;52.088;5.402;2023-06-22T06:26:11;26.17;;;15.98;;
76320;SDS011;65132;52.088;5.402;2023-06-22T06:28:37;24.95;;;15.15;;
76320;SDS011;65132;52.088;5.402;2023-06-22T06:31:03;28.40;;;15.40;;
76320;SDS011;65132;52.088;5.402;2023-06-22T06:33:31;23.10;;;14.82;;
76320;SDS011;65132;52.088;5.402;2023-06-22T06:35:58;25.52;;;14.88;;
76320;SDS011;65132;52.088;5.402;2023-06-22T06:38:24;25.05;;;15.35;;
76320;SDS011;65132;52.088;5.402;2023-06-22T06:40:50;24.05;;;15.60;;
76320;SDS011;65132;52.088;5.402;2023-06-22T06:43:18;25.55;;;15.07;;
76320;SDS011;65132;52.088;5.402;2023-06-22T06:45:44;24.60;;;15.82;;
76320;SDS011;65132;52.088;5.402;2023-06-22T06:48:20;22.88;;;15.25;;
76320;SDS011;65132;52.088;5.402;2023-06-22T06:50:49;25.55;;;15.90;;
76320;SDS011;65132;52.088;5.402;2023-06-22T06:53:19;24.58;;;15.57;;
76320;SDS011;65132;52.088;5.402;2023-06-22T06:55:45;22.15;;;15.23;;
76320;SDS011;65132;52.088;5.402;2023-06-22T06:58:12;23.80;;;14.32;;
76320;SDS011;65132;52.088;5.402;2023-06-22T07:00:39;21.90;;;15.15;;
76320;SDS011;65132;52.088;5.402;2023-06-22T07:03:05;23.23;;;14.52;;
76320;SDS011;65132;52.088;5.402;2023-06-22T07:05:32;22.88;;;15.00;;
76320;SDS011;65132;52.088;5.402;2023-06-22T07:07:58;25.42;;;15.20;;
76320;SDS011;65132;52.088;5.402;2023-06-22T07:10:28;21.23;;;13.48;;
76320;SDS011;65132;52.088;5.402;2023-06-22T07:12:55;22.38;;;14.43;;
76320;SDS011;65132;52.088;5.402;2023-06-22T07:15:22;21.00;;;14.10;;
76320;SDS011;65132;52.088;5.402;2023-06-22T07:17:55;20.75;;;13.30;;
76320;SDS011;65132;52.088;5.402;2023-06-22T07:20:23;20.67;;;13.05;;
76320;SDS011;65132;52.088;5.402;2023-06-22T07:22:51;19.33;;;12.38;;
76320;SDS011;65132;52.088;5.402;2023-06-22T07:25:17;17.15;;;11.52;;
76320;SDS011;65132;52.088;5.402;2023-06-22T07:27:57;20.95;;;13.80;;
76320;SDS011;65132;52.088;5.402;2023-06-22T07:30:31;19.05;;;12.95;;
76320;SDS011;65132;52.088;5.402;2023-06-22T07:33:02;19.27;;;12.80;;
76320;SDS011;65132;52.088;5.402;2023-06-22T07:35:32;18.60;;;12.63;;
76320;SDS011;65132;52.088;5.402;2023-06-22T07:37:59;20.40;;;12.93;;
76320;SDS011;65132;52.088;5.402;2023-06-22T07:40:48;18.25;;;12.30;;
76320;SDS011;65132;52.088;5.402;2023-06-22T07:43:14;15.43;;;11.05;;
76320;SDS011;65132;52.088;5.402;2023-06-22T07:45:43;17.85;;;11.35;;
76320;SDS011;65132;52.088;5.402;2023-06-22T07:48:13;18.65;;;12.32;;
76320;SDS011;65132;52.088;5.402;2023-06-22T07:50:41;17.70;;;12.00;;
76320;SDS011;65132;52.088;5.402;2023-06-22T07:53:07;20.63;;;12.82;;
76320;SDS011;65132;52.088;5.402;2023-06-22T07:55:34;16.30;;;10.43;;
76320;SDS011;65132;52.088;5.402;2023-06-22T07:58:05;18.98;;;11.25;;
76320;SDS011;65132;52.088;5.402;2023-06-22T08:00:34;16.80;;;10.35;;
76320;SDS011;65132;52.088;5.402;2023-06-22T08:03:02;14.23;;;9.98;;
76320;SDS011;65132;52.088;5.402;2023-06-22T08:05:46;17.10;;;10.40;;
76320;SDS011;65132;52.088;5.402;2023-06-22T08:08:13;15.05;;;10.55;;
76320;SDS011;65132;52.088;5.402;2023-06-22T08:10:40;14.60;;;9.73;;
76320;SDS011;65132;52.088;5.402;2023-06-22T08:13:13;15.55;;;9.65;;
76320;SDS011;65132;52.088;5.402;2023-06-22T08:15:44;17.08;;;9.98;;
76320;SDS011;65132;52.088;5.402;2023-06-22T08:18:12;14.35;;;8.20;;
76320;SDS011;65132;52.088;5.402;2023-06-22T08:20:41;14.25;;;9.40;;
76320;SDS011;65132;52.088;5.402;2023-06-22T08:23:10;12.70;;;9.40;;
76320;SDS011;65132;52.088;5.402;2023-06-22T08:25:36;13.27;;;9.18;;
76320;SDS011;65132;52.088;5.402;2023-06-22T08:28:04;12.57;;;8.32;;
76320;SDS011;65132;52.088;5.402;2023-06-22T08:30:32;12.15;;;7.50;;
76320;SDS011;65132;52.088;5.402;2023-06-22T08:32:59;13.98;;;8.90;;
76320;SDS011;65132;52.088;5.402;2023-06-22T08:35:25;12.60;;;7.75;;
76320;SDS011;65132;52.088;5.402;2023-06-22T08:37:54;10.48;;;6.22;;
76320;SDS011;65132;52.088;5.402;2023-06-22T08:40:22;11.27;;;7.63;;
76320;SDS011;65132;52.088;5.402;2023-06-22T08:42:49;11.48;;;7.70;;
76320;SDS011;65132;52.088;5.402;2023-06-22T08:45:15;10.82;;;7.40;;
76320;SDS011;65132;52.088;5.402;2023-06-22T08:47:43;11.27;;;8.18;;
76320;SDS011;65132;52.088;5.402;2023-06-22T08:50:11;9.45;;;6.93;;
76320;SDS011;65132;52.088;5.402;2023-06-22T08:52:38;11.25;;;7.90;;
76320;SDS011;65132;52.088;5.402;2023-06-22T08:55:05;12.55;;;8.38;;
76320;SDS011;65132;52.088;5.402;2023-06-22T08:57:32;10.00;;;7.07;;
76320;SDS011;65132;52.088;5.402;2023-06-22T08:59:58;9.93;;;6.40;;
76320;SDS011;65132;52.088;5.402;2023-06-22T09:02:25;10.63;;;7.35;;
76320;SDS011;65132;52.088;5.402;2023-06-22T09:04:52;11.45;;;7.22;;
76320;SDS011;65132;52.088;5.402;2023-06-22T09:07:19;10.32;;;7.18;;
76320;SDS011;65132;52.088;5.402;2023-06-22T09:09:48;11.05;;;6.43;;
76320;SDS011;65132;52.088;5.402;2023-06-22T09:12:16;8.07;;;6.07;;
76320;SDS011;65132;52.088;5.402;2023-06-22T09:14:46;9.10;;;5.38;;
76320;SDS011;65132;52.088;5.402;2023-06-22T09:17:14;8.00;;;4.93;;
76320;SDS011;65132;52.088;5.402;2023-06-22T09:19:41;7.28;;;4.97;;
76320;SDS011;65132;52.088;5.402;2023-06-22T09:22:10;7.95;;;5.13;;
76320;SDS011;65132;52.088;5.402;2023-06-22T09:24:42;6.38;;;4.28;;
76320;SDS011;65132;52.088;5.402;2023-06-22T09:27:08;8.15;;;5.45;;
76320;SDS011;65132;52.088;5.402;2023-06-22T09:29:35;8.43;;;5.10;;
76320;SDS011;65132;52.088;5.402;2023-06-22T09:32:02;7.45;;;5.25;;
76320;SDS011;65132;52.088;5.402;2023-06-22T09:34:29;8.35;;;5.55;;
76320;SDS011;65132;52.088;5.402;2023-06-22T09:36:57;6.18;;;4.53;;
76320;SDS011;65132;52.088;5.402;2023-06-22T09:39:23;8.00;;;4.95;;
76320;SDS011;65132;52.088;5.402;2023-06-22T09:41:52;8.35;;;6.10;;
76320;SDS011;65132;52.088;5.402;2023-06-22T09:44:19;8.27;;;5.00;;
76320;SDS011;65132;52.088;5.402;2023-06-22T09:46:52;8.40;;;5.22;;
76320;SDS011;65132;52.088;5.402;2023-06-22T09:49:21;7.93;;;5.55;;
76320;SDS011;65132;52.088;5.402;2023-06-22T09:52:10;6.90;;;4.47;;
76320;SDS011;65132;52.088;5.402;2023-06-22T09:54:36;9.43;;;4.68;;
76320;SDS011;65132;52.088;5.402;2023-06-22T09:57:03;8.35;;;4.75;;
76320;SDS011;65132;52.088;5.402;2023-06-22T09:59:30;6.00;;;4.38;;
76320;SDS011;65132;52.088;5.402;2023-06-22T10:01:56;7.97;;;4.05;;
76320;SDS011;65132;52.088;5.402;2023-06-22T10:04:25;5.35;;;3.72;;
76320;SDS011;65132;52.088;5.402;2023-06-22T10:06:55;5.03;;;3.50;;
76320;SDS011;65132;52.088;5.402;2023-06-22T10:09:21;6.28;;;4.32;;
76320;SDS011;65132;52.088;5.402;2023-06-22T10:11:50;7.32;;;4.78;;
76320;SDS011;65132;52.088;5.402;2023-06-22T10:14:17;9.55;;;5.40;;
76320;SDS011;65132;52.088;5.402;2023-06-22T10:16:44;8.00;;;5.07;;
76320;SDS011;65132;52.088;5.402;2023-06-22T10:19:11;8.38;;;5.20;;
76320;SDS011;65132;52.088;5.402;2023-06-22T10:21:40;6.47;;;5.07;;
76320;SDS011;65132;52.088;5.402;2023-06-22T10:24:06;7.00;;;4.80;;
76320;SDS011;65132;52.088;5.402;2023-06-22T10:26:33;7.28;;;4.40;;
76320;SDS011;65132;52.088;5.402;2023-06-22T10:29:03;8.68;;;4.53;;
76320;SDS011;65132;52.088;5.402;2023-06-22T10:31:32;7.07;;;3.97;;
76320;SDS011;65132;52.088;5.402;2023-06-22T10:34:02;6.45;;;3.90;;
76320;SDS011;65132;52.088;5.402;2023-06-22T10:36:32;5.57;;;3.28;;
76320;SDS011;65132;52.088;5.402;2023-06-22T10:39:00;5.80;;;3.33;;
76320;SDS011;65132;52.088;5.402;2023-06-22T10:41:30;6.95;;;3.47;;
76320;SDS011;65132;52.088;5.402;2023-06-22T10:43:57;5.28;;;3.22;;
76320;SDS011;65132;52.088;5.402;2023-06-22T10:46:28;7.72;;;3.15;;
76320;SDS011;65132;52.088;5.402;2023-06-22T10:48:57;5.30;;;2.90;;
76320;SDS011;65132;52.088;5.402;2023-06-22T10:51:42;6.90;;;3.55;;
76320;SDS011;65132;52.088;5.402;2023-06-22T10:54:19;6.00;;;3.53;;
76320;SDS011;65132;52.088;5.402;2023-06-22T10:56:54;6.90;;;4.03;;
76320;SDS011;65132;52.088;5.402;2023-06-22T10:59:21;4.63;;;3.22;;
76320;SDS011;65132;52.088;5.402;2023-06-22T11:01:48;6.63;;;3.65;;
76320;SDS011;65132;52.088;5.402;2023-06-22T11:04:22;4.82;;;2.60;;
76320;SDS011;65132;52.088;5.402;2023-06-22T11:06:50;6.43;;;3.63;;
76320;SDS011;65132;52.088;5.402;2023-06-22T11:09:16;6.32;;;3.63;;
76320;SDS011;65132;52.088;5.402;2023-06-22T11:11:49;6.32;;;3.47;;
76320;SDS011;65132;52.088;5.402;2023-06-22T11:14:15;5.93;;;3.85;;
76320;SDS011;65132;52.088;5.402;2023-06-22T11:16:44;6.13;;;3.92;;
76320;SDS011;65132;52.088;5.402;2023-06-22T11:19:10;6.43;;;4.13;;
76320;SDS011;65132;52.088;5.402;2023-06-22T11:21:41;6.53;;;3.88;;
76320;SDS011;65132;52.088;5.402;2023-06-22T11:24:09;7.40;;;4.38;;
76320;SDS011;65132;52.088;5.402;2023-06-22T11:26:38;7.43;;;4.53;;
76320;SDS011;65132;52.088;5.402;2023-06-22T11:29:04;7.72;;;4.38;;
76320;SDS011;65132;52.088;5.402;2023-06-22T11:31:31;8.00;;;4.35;;
76320;SDS011;65132;52.088;5.402;2023-06-22T11:33:57;6.97;;;4.38;;
76320;SDS011;65132;52.088;5.402;2023-06-22T11:36:25;6.75;;;4.80;;
76320;SDS011;65132;52.088;5.402;2023-06-22T11:38:52;8.20;;;4.45;;
76320;SDS011;65132;52.088;5.402;2023-06-22T11:41:18;6.63;;;4.38;;
76320;SDS011;65132;52.088;5.402;2023-06-22T11:43:44;7.97;;;4.75;;
76320;SDS011;65132;52.088;5.402;2023-06-22T11:46:11;9.10;;;4.80;;
76320;SDS011;65132;52.088;5.402;2023-06-22T11:48:37;5.80;;;4.38;;
76320;SDS011;65132;52.088;5.402;2023-06-22T11:51:04;8.02;;;4.47;;
76320;SDS011;65132;52.088;5.402;2023-06-22T11:53:30;6.70;;;4.57;;
76320;SDS011;65132;52.088;5.402;2023-06-22T11:55:57;6.47;;;4.53;;
76320;SDS011;65132;52.088;5.402;2023-06-22T11:58:25;7.47;;;4.85;;
76320;SDS011;65132;52.088;5.402;2023-06-22T12:00:56;6.65;;;4.47;;
76320;SDS011;65132;52.088;5.402;2023-06-22T12:03:23;5.88;;;4.20;;
76320;SDS011;65132;52.088;5.402;2023-06-22T12:05:52;6.70;;;4.85;;
76320;SDS011;65132;52.088;5.402;2023-06-22T12:08:22;8.15;;;4.60;;
76320;SDS011;65132;52.088;5.402;2023-06-22T12:10:49;8.65;;;5.30;;
76320;SDS011;65132;52.088;5.402;2023-06-22T12:13:16;7.82;;;4.75;;
76320;SDS011;65132;52.088;5.402;2023-06-22T12:15:43;9.02;;;5.32;;
76320;SDS011;65132;52.088;5.402;2023-06-22T12:18:09;7.80;;;5.05;;
76320;SDS011;65132;52.088;5.402;2023-06-22T12:20:39;10.93;;;6.25;;
76320;SDS011;65132;52.088;5.402;2023-06-22T12:23:05;9.20;;;6.65;;
76320;SDS011;65132;52.088;5.402;2023-06-22T12:25:31;10.98;;;6.88;;
76320;SDS011;65132;52.088;5.402;2023-06-22T12:27:58;11.48;;;7.47;;
76320;SDS011;65132;52.088;5.402;2023-06-22T12:30:27;12.18;;;8.50;;
76320;SDS011;65132;52.088;5.402;2023-06-22T12:33:01;12.68;;;8.75;;
76320;SDS011;65132;52.088;5.402;2023-06-22T12:35:31;12.57;;;9.18;;
76320;SDS011;65132;52.088;5.402;2023-06-22T12:38:02;12.93;;;8.80;;
76320;SDS011;65132;52.088;5.402;2023-06-22T12:40:34;13.57;;;8.57;;
76320;SDS011;65132;52.088;5.402;2023-06-22T12:43:00;11.65;;;9.18;;
76320;SDS011;65132;52.088;5.402;2023-06-22T12:45:31;14.80;;;9.60;;
76320;SDS011;65132;52.088;5.402;2023-06-22T12:48:01;14.02;;;10.48;;
76320;SDS011;65132;52.088;5.402;2023-06-22T12:50:28;14.55;;;9.82;;
76320;SDS011;65132;52.088;5.402;2023-06-22T12:52:57;14.35;;;10.77;;
76320;SDS011;65132;52.088;5.402;2023-06-22T12:55:23;16.00;;;10.35;;
76320;SDS011;65132;52.088;5.402;2023-06-22T12:57:50;15.38;;;10.80;;
76320;SDS011;65132;52.088;5.402;2023-06-22T13:00:20;15.80;;;10.77;;
76320;SDS011;65132;52.088;5.402;2023-06-22T13:02:52;14.68;;;10.63;;
76320;SDS011;65132;52.088;5.402;2023-06-22T13:05:25;15.73;;;10.43;;
76320;SDS011;65132;52.088;5.402;2023-06-22T13:07:54;16.85;;;9.77;;
76320;SDS011;65132;52.088;5.402;2023-06-22T13:12:48;16.33;;;10.88;;
76320;SDS011;65132;52.088;5.402;2023-06-22T13:15:16;16.38;;;10.65;;
76320;SDS011;65132;52.088;5.402;2023-06-22T13:17:47;14.65;;;10.07;;
76320;SDS011;65132;52.088;5.402;2023-06-22T13:20:14;13.23;;;10.02;;
76320;SDS011;65132;52.088;5.402;2023-06-22T13:22:42;15.05;;;10.90;;
76320;SDS011;65132;52.088;5.402;2023-06-22T13:25:08;16.73;;;11.05;;
76320;SDS011;65132;52.088;5.402;2023-06-22T13:27:35;16.08;;;11.68;;
76320;SDS011;65132;52.088;5.402;2023-06-22T13:30:08;18.23;;;11.02;;
76320;SDS011;65132;52.088;5.402;2023-06-22T13:32:39;16.95;;;11.48;;
76320;SDS011;65132;52.088;5.402;2023-06-22T13:35:05;17.00;;;11.75;;
76320;SDS011;65132;52.088;5.402;2023-06-22T13:37:31;16.67;;;11.68;;
76320;SDS011;65132;52.088;5.402;2023-06-22T13:39:59;16.90;;;11.68;;
76320;SDS011;65132;52.088;5.402;2023-06-22T13:42:37;15.80;;;10.30;;
76320;SDS011;65132;52.088;5.402;2023-06-22T13:45:06;12.50;;;9.60;;
76320;SDS011;65132;52.088;5.402;2023-06-22T13:47:32;16.45;;;12.25;;
76320;SDS011;65132;52.088;5.402;2023-06-22T13:49:59;20.77;;;13.77;;
76320;SDS011;65132;52.088;5.402;2023-06-22T13:52:33;19.00;;;13.20;;
76320;SDS011;65132;52.088;5.402;2023-06-22T13:55:02;18.25;;;13.00;;
76320;SDS011;65132;52.088;5.402;2023-06-22T13:57:31;20.08;;;13.07;;
76320;SDS011;65132;52.088;5.402;2023-06-22T13:59:57;16.90;;;11.70;;
76320;SDS011;65132;52.088;5.402;2023-06-22T14:02:31;16.08;;;12.05;;
76320;SDS011;65132;52.088;5.402;2023-06-22T14:04:57;15.73;;;12.20;;
76320;SDS011;65132;52.088;5.402;2023-06-22T14:07:27;15.65;;;12.27;;
76320;SDS011;65132;52.088;5.402;2023-06-22T14:12:24;18.33;;;12.13;;
76320;SDS011;65132;52.088;5.402;2023-06-22T14:14:54;18.23;;;12.27;;
76320;SDS011;65132;52.088;5.402;2023-06-22T14:17:26;14.85;;;10.20;;
76320;SDS011;65132;52.088;5.402;2023-06-22T14:19:52;16.17;;;11.85;;
76320;SDS011;65132;52.088;5.402;2023-06-22T14:22:22;14.35;;;10.93;;
76320;SDS011;65132;52.088;5.402;2023-06-22T14:24:48;16.23;;;10.95;;
76320;SDS011;65132;52.088;5.402;2023-06-22T14:27:29;16.95;;;12.35;;
76320;SDS011;65132;52.088;5.402;2023-06-22T14:29:55;17.13;;;11.90;;
76320;SDS011;65132;52.088;5.402;2023-06-22T14:32:22;14.52;;;10.20;;
76320;SDS011;65132;52.088;5.402;2023-06-22T14:34:52;11.77;;;9.52;;
76320;SDS011;65132;52.088;5.402;2023-06-22T14:37:19;15.45;;;10.75;;
76320;SDS011;65132;52.088;5.402;2023-06-22T14:39:48;14.32;;;10.55;;
76320;SDS011;65132;52.088;5.402;2023-06-22T14:42:22;14.82;;;10.80;;
76320;SDS011;65132;52.088;5.402;2023-06-22T14:44:53;14.10;;;10.85;;
76320;SDS011;65132;52.088;5.402;2023-06-22T14:47:20;15.38;;;9.98;;
76320;SDS011;65132;52.088;5.402;2023-06-22T14:49:47;17.60;;;10.80;;
76320;SDS011;65132;52.088;5.402;2023-06-22T14:52:13;17.85;;;11.27;;
76320;SDS011;65132;52.088;5.402;2023-06-22T14:57:16;16.15;;;10.90;;
76320;SDS011;65132;52.088;5.402;2023-06-22T14:59:43;14.45;;;9.55;;
76320;SDS011;65132;52.088;5.402;2023-06-22T15:02:09;15.82;;;11.52;;
76320;SDS011;65132;52.088;5.402;2023-06-22T15:04:37;15.18;;;10.07;;
76320;SDS011;65132;52.088;5.402;2023-06-22T15:07:03;14.30;;;11.07;;
76320;SDS011;65132;52.088;5.402;2023-06-22T15:09:30;16.67;;;11.02;;
76320;SDS011;65132;52.088;5.402;2023-06-22T15:11:59;14.25;;;9.95;;